createdAt,value
2022-08-07T00:01:44.754Z,22.67
2022-08-07T00:04:27.951Z,22.81
2022-08-07T00:07:40.928Z,22.84
2022-08-07T00:10:48.367Z,22.76
2022-08-07T00:14:01.864Z,22.85
2022-08-07T00:17:07.213Z,23.05
2022-08-07T00:20:15.605Z,23.09
2022-08-07T00:23:34.874Z,23.55
2022-08-07T00:26:59.000Z,23.76
2022-08-07T00:30:03.243Z,23.91
2022-08-07T00:33:09.077Z,24.08
2022-08-07T00:36:13.742Z,24.08
2022-08-07T00:39:21.076Z,24.27
2022-08-07T00:42:29.279Z,24.34
2022-08-07T00:45:34.043Z,24.17
2022-08-07T00:48:42.015Z,24.43
2022-08-07T00:51:56.802Z,24.03
2022-08-07T00:55:04.776Z,24.25
2022-08-07T00:58:15.263Z,24.48
2022-08-07T01:01:20.434Z,24.40
2022-08-07T01:04:26.352Z,24.42
2022-08-07T01:07:43.500Z,24.66
2022-08-07T01:10:56.547Z,24.43
2022-08-07T01:14:15.454Z,24.45
2022-08-07T01:17:33.687Z,24.42
2022-08-07T01:21:01.363Z,24.74
2022-08-07T01:24:21.229Z,24.62
2022-08-07T01:27:32.287Z,24.46
2022-08-07T01:30:56.015Z,24.52
2022-08-07T01:34:04.203Z,24.60
2022-08-07T01:37:40.694Z,24.50
2022-08-07T01:40:59.576Z,24.71
2022-08-07T01:44:14.365Z,24.79
2022-08-07T01:48:21.404Z,24.70
2022-08-07T01:54:37.779Z,24.70
2022-08-07T01:58:28.922Z,24.58
2022-08-07T02:02:02.386Z,24.79
2022-08-07T02:05:43.486Z,24.74
2022-08-07T02:08:44.741Z,24.64
2022-08-07T02:12:04.677Z,24.79
2022-08-07T02:15:18.059Z,24.65
2022-08-07T02:18:33.361Z,24.80
2022-08-07T02:21:56.528Z,24.91
2022-08-07T02:25:07.437Z,24.65
2022-08-07T02:28:24.410Z,24.62
2022-08-07T02:31:39.270Z,24.42
2022-08-07T02:34:55.716Z,24.66
2022-08-07T02:38:07.608Z,24.65
2022-08-07T02:41:33.434Z,24.42
2022-08-07T02:44:58.414Z,24.35
2022-08-07T02:48:17.596Z,24.54
2022-08-07T02:51:49.768Z,24.35
2022-08-07T02:55:27.251Z,24.11
2022-08-07T02:58:39.828Z,24.05
2022-08-07T03:02:02.220Z,23.85
2022-08-07T03:05:25.557Z,23.83
2022-08-07T03:08:39.874Z,23.75
2022-08-07T03:11:52.287Z,23.60
2022-08-07T03:15:30.198Z,23.87
2022-08-07T03:18:48.091Z,23.90
2022-08-07T03:22:04.632Z,23.66
2022-08-07T03:25:40.331Z,23.61
2022-08-07T03:29:00.228Z,23.79
2022-08-07T03:32:29.584Z,23.66
2022-08-07T03:36:04.639Z,23.57
2022-08-07T03:40:00.141Z,23.57
2022-08-07T03:43:14.440Z,23.40
2022-08-07T03:50:05.790Z,23.44
2022-08-07T03:54:00.547Z,23.27
2022-08-07T03:57:09.081Z,23.35
2022-08-07T04:00:30.263Z,23.40
2022-08-07T04:03:38.817Z,23.23
2022-08-07T04:06:56.050Z,23.16
2022-08-07T04:10:15.377Z,22.94
2022-08-07T04:13:27.768Z,23.09
2022-08-07T04:16:33.595Z,23.18
2022-08-07T04:19:52.667Z,23.31
2022-08-07T04:23:02.090Z,23.17
2022-08-07T04:26:16.900Z,23.16
2022-08-07T04:29:40.259Z,23.31
2022-08-07T04:32:47.989Z,23.55
2022-08-07T04:35:55.655Z,23.51
2022-08-07T04:39:08.677Z,23.51
2022-08-07T04:42:15.516Z,23.95
2022-08-07T04:45:44.534Z,24.25
2022-08-07T04:49:18.043Z,24.41
2022-08-07T04:52:46.688Z,24.66
2022-08-07T04:58:13.817Z,25.02
2022-08-07T05:00:12.442Z,24.99
2022-08-07T05:03:31.089Z,25.21
2022-08-07T05:06:43.338Z,25.56
2022-08-07T05:09:59.150Z,25.74
2022-08-07T05:14:55.702Z,25.86
2022-08-07T05:16:44.140Z,25.99
2022-08-07T05:19:54.295Z,25.59
2022-08-07T05:23:03.606Z,25.64
2022-08-07T05:26:18.680Z,25.87
2022-08-07T05:29:48.076Z,25.74
2022-08-07T05:32:58.268Z,25.59
2022-08-07T05:36:12.255Z,25.10
2022-08-07T05:40:05.631Z,24.82
2022-08-07T05:42:55.916Z,24.51
2022-08-07T05:46:02.632Z,24.65
2022-08-07T05:49:12.563Z,25.04
2022-08-07T05:52:29.832Z,25.30
2022-08-07T05:56:02.439Z,25.13
2022-08-07T05:59:03.982Z,25.32
2022-08-07T06:02:21.491Z,25.36
2022-08-07T06:05:36.587Z,25.05
2022-08-07T06:08:49.188Z,25.15
2022-08-07T06:11:56.548Z,24.79
2022-08-07T06:15:05.411Z,24.85
2022-08-07T06:18:10.794Z,24.72
2022-08-07T06:22:15.159Z,25.06
2022-08-07T06:24:53.061Z,25.06
2022-08-07T06:28:06.526Z,25.32
2022-08-07T06:31:11.963Z,25.18
2022-08-07T06:34:16.277Z,25.31
2022-08-07T06:37:24.991Z,25.37
2022-08-07T06:40:54.679Z,25.48
2022-08-07T06:44:25.019Z,25.42
2022-08-07T06:47:48.184Z,25.40
2022-08-07T06:51:09.467Z,25.21
2022-08-07T06:55:32.302Z,24.95
2022-08-07T06:57:47.771Z,25.36
2022-08-07T07:01:05.895Z,25.48
2022-08-07T07:04:32.639Z,25.58
2022-08-07T07:07:59.734Z,25.81
2022-08-07T07:11:13.808Z,25.51
2022-08-07T07:14:32.471Z,25.38
2022-08-07T07:17:45.397Z,25.57
2022-08-07T07:20:56.978Z,25.15
2022-08-07T07:24:08.691Z,25.41
2022-08-07T07:27:22.044Z,25.65
2022-08-07T07:30:37.730Z,25.44
2022-08-07T07:33:44.579Z,25.74
2022-08-07T07:37:14.992Z,25.54
2022-08-07T07:40:26.754Z,25.78
2022-08-07T07:43:48.146Z,26.02
2022-08-07T07:47:15.970Z,26.17
2022-08-07T07:50:59.833Z,26.17
2022-08-07T07:54:22.652Z,26.08
2022-08-07T07:57:51.501Z,26.40
2022-08-07T08:00:57.343Z,26.81
2022-08-07T08:04:11.619Z,26.77
2022-08-07T08:07:20.175Z,27.00
2022-08-07T08:10:35.589Z,27.13
2022-08-07T08:13:54.614Z,27.04
2022-08-07T08:17:56.563Z,27.14
2022-08-07T08:20:32.226Z,27.26
2022-08-07T08:23:56.162Z,27.08
2022-08-07T08:27:10.351Z,27.10
2022-08-07T08:30:17.480Z,27.28
2022-08-07T08:33:33.384Z,27.38
2022-08-07T08:36:46.178Z,27.01
2022-08-07T08:39:58.232Z,27.37
2022-08-07T08:43:10.581Z,26.91
2022-08-07T08:46:23.064Z,26.97
2022-08-07T08:49:46.400Z,27.24
2022-08-07T08:52:59.008Z,26.75
2022-08-07T08:56:07.327Z,27.27
2022-08-07T08:59:26.773Z,27.31
2022-08-07T09:02:40.335Z,27.35
2022-08-07T09:05:56.875Z,27.67
2022-08-07T09:09:20.810Z,27.35
2022-08-07T09:12:53.178Z,27.71
2022-08-07T09:16:24.119Z,28.07
2022-08-07T09:19:53.744Z,28.24
2022-08-07T09:24:32.611Z,28.11
2022-08-07T09:26:51.108Z,28.01
2022-08-07T09:30:05.534Z,27.87
2022-08-07T09:33:52.639Z,27.80
2022-08-07T09:37:03.190Z,27.73
2022-08-07T09:40:25.331Z,27.25
2022-08-07T09:44:06.446Z,27.50
2022-08-07T09:47:49.518Z,27.90
2022-08-07T09:51:14.524Z,27.99
2022-08-07T09:54:36.888Z,27.70
2022-08-07T09:58:17.118Z,27.36
2022-08-07T10:01:54.393Z,28.06
2022-08-07T10:05:29.684Z,28.34
2022-08-07T10:09:10.672Z,28.21
2022-08-07T10:12:40.419Z,28.31
2022-08-07T10:16:10.788Z,28.43
2022-08-07T10:19:27.388Z,28.43
2022-08-07T10:22:50.841Z,28.89
2022-08-07T10:26:03.476Z,29.04
2022-08-07T10:29:35.124Z,28.89
2022-08-07T10:33:01.386Z,29.10
2022-08-07T10:36:29.900Z,28.80
2022-08-07T10:40:06.007Z,28.31
2022-08-07T10:43:21.258Z,28.65
2022-08-07T10:46:44.386Z,28.84
2022-08-07T10:49:58.254Z,28.90
2022-08-07T10:53:11.298Z,28.88
2022-08-07T10:56:33.218Z,28.96
2022-08-07T10:59:54.792Z,28.92
2022-08-07T11:03:10.973Z,28.69
2022-08-07T11:06:23.515Z,29.01
2022-08-07T11:10:09.714Z,29.19
2022-08-07T11:13:42.485Z,29.17
2022-08-07T11:16:37.884Z,28.81
2022-08-07T11:19:51.884Z,29.02
2022-08-07T11:23:04.325Z,29.20
2022-08-07T11:26:19.295Z,29.28
2022-08-07T11:30:42.925Z,29.24
2022-08-07T11:34:00.216Z,29.24
2022-08-07T11:37:14.717Z,28.87
2022-08-07T11:40:33.068Z,29.23
2022-08-07T11:44:10.720Z,29.07
2022-08-07T11:47:38.685Z,29.27
2022-08-07T11:51:09.783Z,29.11
2022-08-07T11:54:35.552Z,29.31
2022-08-07T11:57:59.790Z,29.43
2022-08-07T12:01:25.861Z,29.53
2022-08-07T12:05:28.575Z,29.54
2022-08-07T12:08:49.830Z,29.74
2022-08-07T12:12:15.786Z,29.66
2022-08-07T12:16:30.422Z,29.58
2022-08-07T12:20:02.581Z,29.67
2022-08-07T12:23:37.416Z,29.55
2022-08-07T12:27:05.068Z,29.43
2022-08-07T12:30:23.470Z,29.42
2022-08-07T12:34:26.003Z,29.36
2022-08-07T12:38:10.147Z,29.44
2022-08-07T12:41:02.551Z,29.53
2022-08-07T12:44:17.269Z,29.53
2022-08-07T12:47:37.263Z,29.58
2022-08-07T12:50:52.975Z,29.80
2022-08-07T12:54:37.838Z,29.88
2022-08-07T12:58:07.433Z,29.74
2022-08-07T13:01:38.027Z,29.57
2022-08-07T13:06:04.820Z,29.65
2022-08-07T13:10:17.771Z,29.59
2022-08-07T13:13:02.572Z,29.69
2022-08-07T13:16:18.172Z,29.54
2022-08-07T13:19:51.592Z,29.52
2022-08-07T13:23:03.936Z,29.65
2022-08-07T13:26:20.010Z,29.75
2022-08-07T13:29:42.494Z,29.79
2022-08-07T13:34:30.353Z,29.73
2022-08-07T13:41:41.340Z,29.72
2022-08-07T13:45:40.586Z,29.80
2022-08-07T13:48:34.532Z,29.80
2022-08-07T13:52:22.300Z,29.90
2022-08-07T13:55:38.495Z,29.91
2022-08-07T13:59:21.549Z,29.83
2022-08-07T14:02:33.622Z,29.58
2022-08-07T14:06:08.449Z,29.79
2022-08-07T14:10:01.992Z,29.85
2022-08-07T14:13:02.645Z,29.89
2022-08-07T14:16:32.990Z,29.86
2022-08-07T14:20:43.530Z,29.92
2022-08-07T14:23:31.498Z,29.58
2022-08-07T14:27:02.418Z,29.92
2022-08-07T14:30:33.579Z,29.70
2022-08-07T14:33:44.148Z,30.01
2022-08-07T14:36:55.851Z,29.95
2022-08-07T14:40:17.750Z,29.91
2022-08-07T14:43:55.257Z,30.00
2022-08-07T14:47:14.229Z,30.08
2022-08-07T14:50:28.333Z,29.98
2022-08-07T14:54:08.731Z,30.04
2022-08-07T14:57:04.838Z,30.00
2022-08-07T15:00:10.062Z,29.90
2022-08-07T15:03:19.660Z,29.99
2022-08-07T15:06:27.388Z,29.87
2022-08-07T15:09:58.818Z,29.66
2022-08-07T15:13:01.437Z,29.56
2022-08-07T15:16:18.356Z,29.77
2022-08-07T15:20:31.324Z,29.64
2022-08-07T15:26:39.538Z,29.79
2022-08-07T15:33:19.476Z,29.85
2022-08-07T15:37:04.045Z,29.85
2022-08-07T15:39:58.310Z,29.94
2022-08-07T15:43:53.196Z,29.78
2022-08-07T15:53:53.090Z,29.84
2022-08-07T15:57:01.917Z,29.84
2022-08-07T16:00:07.767Z,29.85
2022-08-07T16:03:21.653Z,29.82
2022-08-07T16:06:51.370Z,29.83
2022-08-07T16:10:14.214Z,29.66
2022-08-07T16:13:58.805Z,29.76
2022-08-07T16:18:01.816Z,29.72
2022-08-07T16:20:55.260Z,29.52
2022-08-07T16:24:33.648Z,29.49
2022-08-07T16:27:57.143Z,29.34
2022-08-07T16:31:11.797Z,29.48
2022-08-07T16:34:48.144Z,29.45
2022-08-07T16:38:29.593Z,29.47
2022-08-07T16:42:12.787Z,29.49
2022-08-07T16:46:33.543Z,29.27
2022-08-07T16:50:26.584Z,29.30
2022-08-07T16:54:01.644Z,29.25
2022-08-07T16:57:17.177Z,29.22
2022-08-07T17:00:44.597Z,29.18
2022-08-07T17:04:00.110Z,29.22
2022-08-07T17:07:55.636Z,29.17
2022-08-07T17:11:02.288Z,29.19
2022-08-07T17:14:22.091Z,29.13
2022-08-07T17:17:46.019Z,29.05
2022-08-07T17:21:02.291Z,29.10
2022-08-07T17:24:47.664Z,28.96
2022-08-07T17:28:00.524Z,29.03
2022-08-07T17:31:19.641Z,29.00
2022-08-07T17:35:30.801Z,29.01
2022-08-07T17:38:32.117Z,29.02
2022-08-07T17:42:01.496Z,29.03
2022-08-07T17:45:28.837Z,29.08
2022-08-07T17:48:52.092Z,29.12
2022-08-07T17:52:10.533Z,29.07
2022-08-07T17:55:55.795Z,28.96
2022-08-07T17:59:19.883Z,28.92
2022-08-07T18:02:39.502Z,28.91
2022-08-07T18:06:16.804Z,28.89
2022-08-07T18:10:10.769Z,28.83
2022-08-07T18:13:44.937Z,28.84
2022-08-07T18:16:58.165Z,28.85
2022-08-07T18:21:09.847Z,28.84
2022-08-07T18:24:33.923Z,28.70
2022-08-07T18:28:00.570Z,28.37
2022-08-07T18:31:18.558Z,28.25
2022-08-07T18:34:53.213Z,28.26
2022-08-07T18:38:55.881Z,28.13
2022-08-07T18:41:57.872Z,28.10
2022-08-07T18:45:44.819Z,28.04
2022-08-07T18:50:31.745Z,27.91
2022-08-07T18:52:53.847Z,27.47
2022-08-07T18:56:15.266Z,27.56
2022-08-07T18:59:47.685Z,27.28
2022-08-07T19:03:16.086Z,27.24
2022-08-07T19:06:33.848Z,27.29
2022-08-07T19:09:56.027Z,27.18
2022-08-07T19:13:12.109Z,27.08
2022-08-07T19:17:04.479Z,26.92
2022-08-07T19:20:28.807Z,26.78
2022-08-07T19:23:58.961Z,26.81
2022-08-07T19:28:56.402Z,26.66
2022-08-07T19:31:05.119Z,26.62
2022-08-07T19:34:08.771Z,26.60
2022-08-07T19:37:17.428Z,26.33
2022-08-07T19:40:30.864Z,26.13
2022-08-07T19:48:30.835Z,26.01
2022-08-07T19:51:52.953Z,25.80
2022-08-07T19:55:05.484Z,25.89
2022-08-07T19:58:18.540Z,25.89
2022-08-07T20:01:52.209Z,25.83
2022-08-07T20:05:00.482Z,25.69
2022-08-07T20:08:14.386Z,25.49
2022-08-07T20:11:34.177Z,25.53
2022-08-07T20:14:54.110Z,25.41
2022-08-07T20:18:07.023Z,25.62
2022-08-07T20:21:52.631Z,25.50
2022-08-07T20:25:06.288Z,25.50
2022-08-07T20:28:18.354Z,25.51
2022-08-07T20:31:26.133Z,25.29
2022-08-07T20:34:50.280Z,25.11
2022-08-07T20:37:59.001Z,25.30
2022-08-07T20:41:05.577Z,25.34
2022-08-07T20:44:13.033Z,25.06
2022-08-07T20:47:56.364Z,25.29
2022-08-07T20:50:56.707Z,25.15
2022-08-07T20:54:08.588Z,24.69
2022-08-07T20:57:47.512Z,24.67
2022-08-07T21:01:54.881Z,24.95
2022-08-07T21:05:10.240Z,25.00
2022-08-07T21:08:29.359Z,24.48
2022-08-07T21:11:50.154Z,24.56
2022-08-07T21:14:58.048Z,24.65
2022-08-07T21:18:33.633Z,24.64
2022-08-07T21:21:56.754Z,24.72
2022-08-07T21:25:13.350Z,24.61
2022-08-07T21:28:49.299Z,24.62
2022-08-07T21:32:43.928Z,24.62
2022-08-07T21:36:03.857Z,24.79
2022-08-07T21:39:46.853Z,24.57
2022-08-07T21:42:48.624Z,24.59
2022-08-07T21:46:05.063Z,24.59
2022-08-07T21:49:25.694Z,24.21
2022-08-07T21:52:50.418Z,24.30
2022-08-07T21:56:16.769Z,24.34
2022-08-07T22:00:04.266Z,24.09
2022-08-07T22:03:17.080Z,24.15
2022-08-07T22:06:31.257Z,24.21
2022-08-07T22:09:54.379Z,24.23
2022-08-07T22:13:02.950Z,24.21
2022-08-07T22:16:43.461Z,24.19
2022-08-07T22:19:57.247Z,23.83
2022-08-07T22:23:12.443Z,23.75
2022-08-07T22:26:23.267Z,23.78
2022-08-07T22:29:48.533Z,23.68
2022-08-07T22:33:04.871Z,24.02
2022-08-07T22:36:19.121Z,23.81
2022-08-07T22:39:51.943Z,23.99
2022-08-07T22:43:02.396Z,24.02
2022-08-07T22:47:02.301Z,23.95
2022-08-07T22:50:11.191Z,23.85
2022-08-07T22:54:07.332Z,23.64
2022-08-07T22:57:25.852Z,23.39
2022-08-07T23:00:36.088Z,23.53
2022-08-07T23:04:01.959Z,23.42
2022-08-07T23:07:40.092Z,23.27
2022-08-07T23:10:58.093Z,23.16
2022-08-07T23:14:35.081Z,23.43
2022-08-07T23:17:54.818Z,23.65
2022-08-07T23:21:16.476Z,23.75
2022-08-07T23:24:38.764Z,23.64
2022-08-07T23:28:28.979Z,23.28
2022-08-07T23:34:19.413Z,23.53
2022-08-07T23:35:22.950Z,23.02
2022-08-07T23:38:43.221Z,22.97
2022-08-07T23:42:15.535Z,23.03
2022-08-07T23:46:03.053Z,23.14
2022-08-07T23:49:26.088Z,23.14
2022-08-07T23:53:17.462Z,23.07
2022-08-07T23:56:31.129Z,23.20
